sensor_id;sensor_type;location;lat;lon;timestamp;P1;durP1;ratioP1;P2;durP2;ratioP2
13795;SDS011;40911;51.552;9.874;2023-06-04T00:04:18;2.55;;;1.70;;
13795;SDS011;40911;51.552;9.874;2023-06-04T00:06:42;1.92;;;1.67;;
13795;SDS011;40911;51.552;9.874;2023-06-04T00:09:04;2.78;;;1.80;;
13795;SDS011;40911;51.552;9.874;2023-06-04T00:11:26;2.47;;;1.77;;
13795;SDS011;40911;51.552;9.874;2023-06-04T00:13:47;2.60;;;1.80;;
13795;SDS011;40911;51.552;9.874;2023-06-04T00:18:31;1.92;;;1.50;;
13795;SDS011;40911;51.552;9.874;2023-06-04T00:20:54;1.60;;;1.50;;
13795;SDS011;40911;51.552;9.874;2023-06-04T00:23:15;2.92;;;1.70;;
13795;SDS011;40911;51.552;9.874;2023-06-04T00:25:37;3.78;;;2.20;;
13795;SDS011;40911;51.552;9.874;2023-06-04T00:30:20;2.72;;;1.60;;
13795;SDS011;40911;51.552;9.874;2023-06-04T00:32:42;2.00;;;1.80;;
13795;SDS011;40911;51.552;9.874;2023-06-04T00:35:03;1.85;;;1.67;;
13795;SDS011;40911;51.552;9.874;2023-06-04T00:37:27;3.45;;;1.90;;
13795;SDS011;40911;51.552;9.874;2023-06-04T00:39:50;1.67;;;1.58;;
13795;SDS011;40911;51.552;9.874;2023-06-04T00:44:33;2.30;;;1.80;;
13795;SDS011;40911;51.552;9.874;2023-06-04T00:46:56;2.03;;;1.83;;
13795;SDS011;40911;51.552;9.874;2023-06-04T00:49:18;1.88;;;1.67;;
13795;SDS011;40911;51.552;9.874;2023-06-04T00:54:03;2.30;;;1.50;;
13795;SDS011;40911;51.552;9.874;2023-06-04T00:56:28;2.50;;;1.77;;
13795;SDS011;40911;51.552;9.874;2023-06-04T00:58:50;2.13;;;1.90;;
13795;SDS011;40911;51.552;9.874;2023-06-04T01:01:15;6.28;;;1.80;;
13795;SDS011;40911;51.552;9.874;2023-06-04T01:03:42;1.70;;;1.60;;
13795;SDS011;40911;51.552;9.874;2023-06-04T01:06:09;3.05;;;2.00;;
13795;SDS011;40911;51.552;9.874;2023-06-04T01:08:42;2.88;;;2.20;;
13795;SDS011;40911;51.552;9.874;2023-06-04T01:11:05;2.20;;;2.00;;
13795;SDS011;40911;51.552;9.874;2023-06-04T01:13:27;1.92;;;1.83;;
13795;SDS011;40911;51.552;9.874;2023-06-04T01:15:49;3.45;;;1.77;;
13795;SDS011;40911;51.552;9.874;2023-06-04T01:18:10;2.97;;;1.80;;
13795;SDS011;40911;51.552;9.874;2023-06-04T01:20:47;2.22;;;1.95;;
13795;SDS011;40911;51.552;9.874;2023-06-04T01:23:14;3.35;;;1.95;;
13795;SDS011;40911;51.552;9.874;2023-06-04T01:25:44;2.13;;;1.92;;
13795;SDS011;40911;51.552;9.874;2023-06-04T01:28:11;2.13;;;1.92;;
13795;SDS011;40911;51.552;9.874;2023-06-04T01:30:36;2.55;;;2.10;;
13795;SDS011;40911;51.552;9.874;2023-06-04T01:33:03;3.13;;;2.05;;
13795;SDS011;40911;51.552;9.874;2023-06-04T01:37:46;3.22;;;1.98;;
13795;SDS011;40911;51.552;9.874;2023-06-04T01:40:09;2.70;;;2.28;;
13795;SDS011;40911;51.552;9.874;2023-06-04T01:42:31;3.22;;;2.20;;
13795;SDS011;40911;51.552;9.874;2023-06-04T01:44:54;2.83;;;2.42;;
13795;SDS011;40911;51.552;9.874;2023-06-04T01:47:15;3.70;;;3.22;;
13795;SDS011;40911;51.552;9.874;2023-06-04T01:49:37;18.83;;;5.75;;
13795;SDS011;40911;51.552;9.874;2023-06-04T01:52:00;11.18;;;5.45;;
13795;SDS011;40911;51.552;9.874;2023-06-04T01:54:22;10.82;;;4.90;;
13795;SDS011;40911;51.552;9.874;2023-06-04T01:56:43;6.20;;;3.88;;
13795;SDS011;40911;51.552;9.874;2023-06-04T01:59:06;5.82;;;3.90;;
13795;SDS011;40911;51.552;9.874;2023-06-04T02:01:29;7.65;;;4.38;;
13795;SDS011;40911;51.552;9.874;2023-06-04T02:03:51;7.85;;;3.20;;
13795;SDS011;40911;51.552;9.874;2023-06-04T02:06:12;7.35;;;3.30;;
13795;SDS011;40911;51.552;9.874;2023-06-04T02:08:34;5.70;;;3.30;;
13795;SDS011;40911;51.552;9.874;2023-06-04T02:14:13;4.25;;;2.88;;
13795;SDS011;40911;51.552;9.874;2023-06-04T02:16:36;5.60;;;3.10;;
13795;SDS011;40911;51.552;9.874;2023-06-04T02:18:58;3.90;;;3.00;;
13795;SDS011;40911;51.552;9.874;2023-06-04T02:21:20;5.57;;;3.20;;
13795;SDS011;40911;51.552;9.874;2023-06-04T02:23:42;5.32;;;3.42;;
13795;SDS011;40911;51.552;9.874;2023-06-04T02:26:04;4.78;;;3.00;;
13795;SDS011;40911;51.552;9.874;2023-06-04T02:28:26;6.10;;;2.85;;
13795;SDS011;40911;51.552;9.874;2023-06-04T02:30:48;6.22;;;3.35;;
13795;SDS011;40911;51.552;9.874;2023-06-04T02:33:11;6.50;;;3.28;;
13795;SDS011;40911;51.552;9.874;2023-06-04T02:35:33;4.43;;;3.00;;
13795;SDS011;40911;51.552;9.874;2023-06-04T02:40:18;5.80;;;3.30;;
13795;SDS011;40911;51.552;9.874;2023-06-04T02:42:40;5.78;;;3.40;;
13795;SDS011;40911;51.552;9.874;2023-06-04T02:45:01;8.40;;;3.88;;
13795;SDS011;40911;51.552;9.874;2023-06-04T02:47:23;6.25;;;3.95;;
13795;SDS011;40911;51.552;9.874;2023-06-04T02:49:46;7.32;;;3.60;;
13795;SDS011;40911;51.552;9.874;2023-06-04T02:52:08;5.95;;;3.60;;
13795;SDS011;40911;51.552;9.874;2023-06-04T02:54:30;8.85;;;4.28;;
13795;SDS011;40911;51.552;9.874;2023-06-04T02:56:51;9.52;;;4.05;;
13795;SDS011;40911;51.552;9.874;2023-06-04T03:01:35;8.20;;;4.00;;
13795;SDS011;40911;51.552;9.874;2023-06-04T03:03:57;6.68;;;4.03;;
13795;SDS011;40911;51.552;9.874;2023-06-04T03:06:20;6.40;;;3.70;;
13795;SDS011;40911;51.552;9.874;2023-06-04T03:08:43;5.93;;;3.92;;
13795;SDS011;40911;51.552;9.874;2023-06-04T03:11:05;6.38;;;3.92;;
13795;SDS011;40911;51.552;9.874;2023-06-04T03:15:48;9.25;;;3.80;;
13795;SDS011;40911;51.552;9.874;2023-06-04T03:18:10;5.28;;;3.72;;
13795;SDS011;40911;51.552;9.874;2023-06-04T03:20:31;6.35;;;3.60;;
13795;SDS011;40911;51.552;9.874;2023-06-04T03:22:57;5.65;;;3.63;;
13795;SDS011;40911;51.552;9.874;2023-06-04T03:25:19;4.60;;;3.50;;
13795;SDS011;40911;51.552;9.874;2023-06-04T03:27:41;5.82;;;3.53;;
13795;SDS011;40911;51.552;9.874;2023-06-04T03:30:02;7.43;;;3.22;;
13795;SDS011;40911;51.552;9.874;2023-06-04T03:32:24;5.47;;;3.42;;
13795;SDS011;40911;51.552;9.874;2023-06-04T03:34:47;5.53;;;3.55;;
13795;SDS011;40911;51.552;9.874;2023-06-04T03:37:08;5.97;;;3.83;;
13795;SDS011;40911;51.552;9.874;2023-06-04T03:39:32;8.82;;;3.72;;
13795;SDS011;40911;51.552;9.874;2023-06-04T03:41:53;6.28;;;3.83;;
13795;SDS011;40911;51.552;9.874;2023-06-04T03:44:16;8.32;;;4.22;;
13795;SDS011;40911;51.552;9.874;2023-06-04T03:46:38;6.55;;;4.00;;
13795;SDS011;40911;51.552;9.874;2023-06-04T03:51:21;10.73;;;5.22;;
13795;SDS011;40911;51.552;9.874;2023-06-04T03:53:43;14.32;;;5.78;;
13795;SDS011;40911;51.552;9.874;2023-06-04T03:56:06;12.75;;;6.20;;
13795;SDS011;40911;51.552;9.874;2023-06-04T03:58:28;14.10;;;6.38;;
13795;SDS011;40911;51.552;9.874;2023-06-04T04:00:49;15.63;;;6.68;;
13795;SDS011;40911;51.552;9.874;2023-06-04T04:03:11;12.60;;;6.20;;
13795;SDS011;40911;51.552;9.874;2023-06-04T04:07:55;11.13;;;6.18;;
13795;SDS011;40911;51.552;9.874;2023-06-04T04:10:17;12.80;;;6.00;;
13795;SDS011;40911;51.552;9.874;2023-06-04T04:15:02;15.27;;;6.38;;
13795;SDS011;40911;51.552;9.874;2023-06-04T04:17:25;12.30;;;5.10;;
13795;SDS011;40911;51.552;9.874;2023-06-04T04:19:46;8.23;;;4.85;;
13795;SDS011;40911;51.552;9.874;2023-06-04T04:22:09;10.15;;;5.22;;
13795;SDS011;40911;51.552;9.874;2023-06-04T04:24:32;11.63;;;5.25;;
13795;SDS011;40911;51.552;9.874;2023-06-04T04:26:56;13.75;;;5.25;;
13795;SDS011;40911;51.552;9.874;2023-06-04T04:29:20;12.88;;;5.53;;
13795;SDS011;40911;51.552;9.874;2023-06-04T04:31:44;11.88;;;4.95;;
13795;SDS011;40911;51.552;9.874;2023-06-04T04:34:08;7.57;;;4.97;;
13795;SDS011;40911;51.552;9.874;2023-06-04T04:36:29;9.80;;;5.32;;
13795;SDS011;40911;51.552;9.874;2023-06-04T04:38:52;10.75;;;4.93;;
13795;SDS011;40911;51.552;9.874;2023-06-04T04:41:15;9.02;;;4.95;;
13795;SDS011;40911;51.552;9.874;2023-06-04T04:46:00;11.05;;;4.97;;
13795;SDS011;40911;51.552;9.874;2023-06-04T04:48:22;9.70;;;5.20;;
13795;SDS011;40911;51.552;9.874;2023-06-04T04:50:44;8.43;;;5.25;;
13795;SDS011;40911;51.552;9.874;2023-06-04T04:53:06;8.15;;;4.65;;
13795;SDS011;40911;51.552;9.874;2023-06-04T04:55:27;10.82;;;5.00;;
13795;SDS011;40911;51.552;9.874;2023-06-04T04:57:49;8.75;;;4.82;;
13795;SDS011;40911;51.552;9.874;2023-06-04T05:00:11;9.70;;;4.30;;
13795;SDS011;40911;51.552;9.874;2023-06-04T05:02:35;7.90;;;4.03;;
13795;SDS011;40911;51.552;9.874;2023-06-04T05:04:57;9.45;;;4.30;;
13795;SDS011;40911;51.552;9.874;2023-06-04T05:09:41;8.15;;;4.25;;
13795;SDS011;40911;51.552;9.874;2023-06-04T05:12:03;10.30;;;4.43;;
13795;SDS011;40911;51.552;9.874;2023-06-04T05:14:25;11.65;;;4.63;;
13795;SDS011;40911;51.552;9.874;2023-06-04T05:19:10;5.20;;;3.75;;
13795;SDS011;40911;51.552;9.874;2023-06-04T05:21:32;6.28;;;3.50;;
13795;SDS011;40911;51.552;9.874;2023-06-04T05:28:38;6.13;;;3.42;;
13795;SDS011;40911;51.552;9.874;2023-06-04T05:31:03;5.10;;;3.58;;
13795;SDS011;40911;51.552;9.874;2023-06-04T05:35:48;7.30;;;6.57;;
13795;SDS011;40911;51.552;9.874;2023-06-04T05:38:09;7.78;;;7.03;;
13795;SDS011;40911;51.552;9.874;2023-06-04T05:40:35;7.30;;;6.60;;
13795;SDS011;40911;51.552;9.874;2023-06-04T05:42:57;11.38;;;6.57;;
13795;SDS011;40911;51.552;9.874;2023-06-04T05:47:40;6.90;;;5.88;;
13795;SDS011;40911;51.552;9.874;2023-06-04T05:52:25;4.88;;;4.28;;
13795;SDS011;40911;51.552;9.874;2023-06-04T05:54:46;5.38;;;4.13;;
13795;SDS011;40911;51.552;9.874;2023-06-04T05:57:09;5.82;;;3.67;;
13795;SDS011;40911;51.552;9.874;2023-06-04T05:59:30;4.07;;;3.67;;
13795;SDS011;40911;51.552;9.874;2023-06-04T06:04:13;3.75;;;2.83;;
13795;SDS011;40911;51.552;9.874;2023-06-04T06:06:36;5.70;;;2.67;;
13795;SDS011;40911;51.552;9.874;2023-06-04T06:08:59;2.63;;;2.10;;
13795;SDS011;40911;51.552;9.874;2023-06-04T06:11:21;5.00;;;2.20;;
13795;SDS011;40911;51.552;9.874;2023-06-04T06:16:04;2.75;;;2.20;;
13795;SDS011;40911;51.552;9.874;2023-06-04T06:18:26;3.58;;;1.98;;
13795;SDS011;40911;51.552;9.874;2023-06-04T06:23:09;3.13;;;1.58;;
13795;SDS011;40911;51.552;9.874;2023-06-04T06:27:53;2.95;;;1.88;;
13795;SDS011;40911;51.552;9.874;2023-06-04T06:32:36;3.90;;;2.17;;
13795;SDS011;40911;51.552;9.874;2023-06-04T06:37:19;6.15;;;2.08;;
13795;SDS011;40911;51.552;9.874;2023-06-04T06:42:04;2.20;;;2.00;;
13795;SDS011;40911;51.552;9.874;2023-06-04T06:44:26;3.53;;;2.17;;
13795;SDS011;40911;51.552;9.874;2023-06-04T06:49:09;2.90;;;1.75;;
13795;SDS011;40911;51.552;9.874;2023-06-04T06:53:52;3.78;;;2.08;;
13795;SDS011;40911;51.552;9.874;2023-06-04T06:56:14;3.47;;;1.95;;
13795;SDS011;40911;51.552;9.874;2023-06-04T06:58:37;2.42;;;1.80;;
13795;SDS011;40911;51.552;9.874;2023-06-04T07:00:59;2.75;;;2.00;;
13795;SDS011;40911;51.552;9.874;2023-06-04T07:05:42;3.78;;;1.90;;
13795;SDS011;40911;51.552;9.874;2023-06-04T07:10:25;4.38;;;2.15;;
13795;SDS011;40911;51.552;9.874;2023-06-04T07:12:47;3.13;;;2.03;;
13795;SDS011;40911;51.552;9.874;2023-06-04T07:17:32;2.88;;;1.90;;
13795;SDS011;40911;51.552;9.874;2023-06-04T07:22:16;3.92;;;1.90;;
13795;SDS011;40911;51.552;9.874;2023-06-04T07:24:38;6.63;;;2.15;;
13795;SDS011;40911;51.552;9.874;2023-06-04T07:29:21;2.58;;;1.60;;
13795;SDS011;40911;51.552;9.874;2023-06-04T07:31:44;3.53;;;2.10;;
13795;SDS011;40911;51.552;9.874;2023-06-04T07:34:06;2.53;;;1.83;;
13795;SDS011;40911;51.552;9.874;2023-06-04T07:38:50;2.45;;;1.95;;
13795;SDS011;40911;51.552;9.874;2023-06-04T07:43:33;2.40;;;1.70;;
13795;SDS011;40911;51.552;9.874;2023-06-04T07:45:55;2.42;;;1.77;;
13795;SDS011;40911;51.552;9.874;2023-06-04T07:48:18;3.55;;;1.90;;
13795;SDS011;40911;51.552;9.874;2023-06-04T07:50:40;2.20;;;1.70;;
13795;SDS011;40911;51.552;9.874;2023-06-04T07:53:02;4.95;;;1.98;;
13795;SDS011;40911;51.552;9.874;2023-06-04T07:55:24;2.35;;;1.85;;
13795;SDS011;40911;51.552;9.874;2023-06-04T08:00:07;4.72;;;1.90;;
13795;SDS011;40911;51.552;9.874;2023-06-04T08:02:30;3.53;;;1.90;;
13795;SDS011;40911;51.552;9.874;2023-06-04T08:04:53;2.78;;;1.60;;
13795;SDS011;40911;51.552;9.874;2023-06-04T08:07:14;4.30;;;2.15;;
13795;SDS011;40911;51.552;9.874;2023-06-04T08:11:57;3.63;;;2.00;;
13795;SDS011;40911;51.552;9.874;2023-06-04T08:14:19;2.97;;;1.83;;
13795;SDS011;40911;51.552;9.874;2023-06-04T08:16:42;3.88;;;2.28;;
13795;SDS011;40911;51.552;9.874;2023-06-04T08:21:28;2.85;;;1.73;;
13795;SDS011;40911;51.552;9.874;2023-06-04T08:23:50;2.85;;;1.73;;
13795;SDS011;40911;51.552;9.874;2023-06-04T08:26:11;4.30;;;1.60;;
13795;SDS011;40911;51.552;9.874;2023-06-04T08:28:33;3.60;;;1.80;;
13795;SDS011;40911;51.552;9.874;2023-06-04T08:30:55;1.88;;;1.60;;
13795;SDS011;40911;51.552;9.874;2023-06-04T08:33:16;2.60;;;1.60;;
13795;SDS011;40911;51.552;9.874;2023-06-04T08:35:38;3.83;;;1.60;;
13795;SDS011;40911;51.552;9.874;2023-06-04T08:38:01;2.35;;;1.60;;
13795;SDS011;40911;51.552;9.874;2023-06-04T08:40:23;3.15;;;1.75;;
13795;SDS011;40911;51.552;9.874;2023-06-04T08:42:45;3.33;;;1.60;;
13795;SDS011;40911;51.552;9.874;2023-06-04T08:45:09;2.20;;;1.77;;
13795;SDS011;40911;51.552;9.874;2023-06-04T08:47:32;2.10;;;1.58;;
13795;SDS011;40911;51.552;9.874;2023-06-04T08:49:58;1.65;;;1.23;;
13795;SDS011;40911;51.552;9.874;2023-06-04T08:52:20;1.58;;;1.35;;
13795;SDS011;40911;51.552;9.874;2023-06-04T08:54:43;4.13;;;1.30;;
13795;SDS011;40911;51.552;9.874;2023-06-04T08:57:06;1.35;;;1.10;;
13795;SDS011;40911;51.552;9.874;2023-06-04T08:59:28;3.30;;;1.30;;
13795;SDS011;40911;51.552;9.874;2023-06-04T09:01:51;1.65;;;1.30;;
13795;SDS011;40911;51.552;9.874;2023-06-04T09:04:15;2.75;;;1.20;;
13795;SDS011;40911;51.552;9.874;2023-06-04T09:06:37;2.88;;;1.30;;
13795;SDS011;40911;51.552;9.874;2023-06-04T09:09:01;1.65;;;1.27;;
13795;SDS011;40911;51.552;9.874;2023-06-04T09:11:27;2.63;;;1.35;;
13795;SDS011;40911;51.552;9.874;2023-06-04T09:13:54;3.15;;;1.40;;
13795;SDS011;40911;51.552;9.874;2023-06-04T09:16:20;2.20;;;1.55;;
13795;SDS011;40911;51.552;9.874;2023-06-04T09:18:42;3.03;;;1.40;;
13795;SDS011;40911;51.552;9.874;2023-06-04T09:21:06;2.35;;;1.70;;
13795;SDS011;40911;51.552;9.874;2023-06-04T09:23:28;1.90;;;1.40;;
13795;SDS011;40911;51.552;9.874;2023-06-04T09:25:52;5.15;;;1.83;;
13795;SDS011;40911;51.552;9.874;2023-06-04T09:28:16;3.30;;;1.42;;
13795;SDS011;40911;51.552;9.874;2023-06-04T09:30:38;2.55;;;1.35;;
13795;SDS011;40911;51.552;9.874;2023-06-04T09:33:05;3.30;;;1.48;;
13795;SDS011;40911;51.552;9.874;2023-06-04T09:35:27;2.55;;;1.30;;
13795;SDS011;40911;51.552;9.874;2023-06-04T09:37:52;1.73;;;1.45;;
13795;SDS011;40911;51.552;9.874;2023-06-04T09:40:15;4.65;;;1.25;;
13795;SDS011;40911;51.552;9.874;2023-06-04T09:42:43;2.05;;;1.20;;
13795;SDS011;40911;51.552;9.874;2023-06-04T09:45:08;4.07;;;1.50;;
13795;SDS011;40911;51.552;9.874;2023-06-04T09:47:38;3.28;;;1.50;;
13795;SDS011;40911;51.552;9.874;2023-06-04T09:50:00;3.10;;;1.55;;
13795;SDS011;40911;51.552;9.874;2023-06-04T09:52:31;1.58;;;1.30;;
13795;SDS011;40911;51.552;9.874;2023-06-04T09:54:53;1.77;;;1.50;;
13795;SDS011;40911;51.552;9.874;2023-06-04T09:57:16;3.78;;;1.67;;
13795;SDS011;40911;51.552;9.874;2023-06-04T09:59:38;5.57;;;1.60;;
13795;SDS011;40911;51.552;9.874;2023-06-04T10:02:02;3.90;;;1.58;;
13795;SDS011;40911;51.552;9.874;2023-06-04T10:04:26;2.72;;;1.92;;
13795;SDS011;40911;51.552;9.874;2023-06-04T10:06:49;2.55;;;1.83;;
13795;SDS011;40911;51.552;9.874;2023-06-04T10:09:11;2.70;;;1.70;;
13795;SDS011;40911;51.552;9.874;2023-06-04T10:11:35;2.25;;;1.60;;
13795;SDS011;40911;51.552;9.874;2023-06-04T10:14:00;2.83;;;1.77;;
13795;SDS011;40911;51.552;9.874;2023-06-04T10:16:25;3.05;;;1.58;;
13795;SDS011;40911;51.552;9.874;2023-06-04T10:18:48;2.63;;;1.52;;
13795;SDS011;40911;51.552;9.874;2023-06-04T10:21:11;4.70;;;1.63;;
13795;SDS011;40911;51.552;9.874;2023-06-04T10:23:35;3.35;;;1.52;;
13795;SDS011;40911;51.552;9.874;2023-06-04T10:25:57;2.33;;;1.85;;
13795;SDS011;40911;51.552;9.874;2023-06-04T10:28:19;2.15;;;1.48;;
13795;SDS011;40911;51.552;9.874;2023-06-04T10:30:41;2.33;;;1.83;;
13795;SDS011;40911;51.552;9.874;2023-06-04T10:33:02;2.58;;;1.50;;
13795;SDS011;40911;51.552;9.874;2023-06-04T10:35:32;2.42;;;1.40;;
13795;SDS011;40911;51.552;9.874;2023-06-04T10:38:03;2.30;;;1.63;;
13795;SDS011;40911;51.552;9.874;2023-06-04T10:42:52;3.00;;;1.70;;
13795;SDS011;40911;51.552;9.874;2023-06-04T10:45:14;2.03;;;1.30;;
13795;SDS011;40911;51.552;9.874;2023-06-04T10:47:36;1.30;;;1.20;;
13795;SDS011;40911;51.552;9.874;2023-06-04T10:50:06;1.77;;;1.60;;
13795;SDS011;40911;51.552;9.874;2023-06-04T10:52:30;3.80;;;1.50;;
13795;SDS011;40911;51.552;9.874;2023-06-04T10:55:02;2.75;;;1.50;;
13795;SDS011;40911;51.552;9.874;2023-06-04T10:57:24;2.67;;;1.25;;
13795;SDS011;40911;51.552;9.874;2023-06-04T11:02:30;3.78;;;1.50;;
13795;SDS011;40911;51.552;9.874;2023-06-04T11:05:01;2.03;;;1.23;;
13795;SDS011;40911;51.552;9.874;2023-06-04T11:07:26;3.28;;;1.42;;
13795;SDS011;40911;51.552;9.874;2023-06-04T11:09:50;3.47;;;1.60;;
13795;SDS011;40911;51.552;9.874;2023-06-04T11:12:11;3.58;;;1.60;;
13795;SDS011;40911;51.552;9.874;2023-06-04T11:14:33;2.53;;;1.45;;
13795;SDS011;40911;51.552;9.874;2023-06-04T11:16:55;4.22;;;1.45;;
13795;SDS011;40911;51.552;9.874;2023-06-04T11:19:17;5.63;;;1.58;;
13795;SDS011;40911;51.552;9.874;2023-06-04T11:21:39;2.63;;;1.33;;
13795;SDS011;40911;51.552;9.874;2023-06-04T11:24:00;3.28;;;1.80;;
13795;SDS011;40911;51.552;9.874;2023-06-04T11:26:23;2.92;;;1.45;;
13795;SDS011;40911;51.552;9.874;2023-06-04T11:28:51;3.28;;;1.35;;
13795;SDS011;40911;51.552;9.874;2023-06-04T11:31:13;2.05;;;1.33;;
13795;SDS011;40911;51.552;9.874;2023-06-04T11:33:41;4.05;;;1.33;;
13795;SDS011;40911;51.552;9.874;2023-06-04T11:36:04;3.22;;;1.60;;
13795;SDS011;40911;51.552;9.874;2023-06-04T11:38:26;2.70;;;1.45;;
13795;SDS011;40911;51.552;9.874;2023-06-04T11:40:54;2.20;;;1.60;;
13795;SDS011;40911;51.552;9.874;2023-06-04T11:43:18;1.85;;;1.50;;
13795;SDS011;40911;51.552;9.874;2023-06-04T11:45:41;4.70;;;1.45;;
13795;SDS011;40911;51.552;9.874;2023-06-04T11:48:04;3.25;;;1.30;;
13795;SDS011;40911;51.552;9.874;2023-06-04T11:50:27;2.80;;;1.50;;
13795;SDS011;40911;51.552;9.874;2023-06-04T11:52:49;1.70;;;1.35;;
13795;SDS011;40911;51.552;9.874;2023-06-04T11:55:13;3.30;;;1.60;;
13795;SDS011;40911;51.552;9.874;2023-06-04T11:57:37;2.42;;;1.25;;
13795;SDS011;40911;51.552;9.874;2023-06-04T12:00:01;1.27;;;1.17;;
13795;SDS011;40911;51.552;9.874;2023-06-04T12:02:22;2.45;;;1.70;;
13795;SDS011;40911;51.552;9.874;2023-06-04T12:04:44;1.77;;;1.30;;
13795;SDS011;40911;51.552;9.874;2023-06-04T12:07:07;2.50;;;1.40;;
13795;SDS011;40911;51.552;9.874;2023-06-04T12:09:30;3.75;;;1.58;;
13795;SDS011;40911;51.552;9.874;2023-06-04T12:11:57;1.60;;;1.45;;
13795;SDS011;40911;51.552;9.874;2023-06-04T12:14:19;3.47;;;1.30;;
13795;SDS011;40911;51.552;9.874;2023-06-04T12:16:43;2.35;;;1.77;;
13795;SDS011;40911;51.552;9.874;2023-06-04T12:19:15;2.50;;;1.67;;
13795;SDS011;40911;51.552;9.874;2023-06-04T12:21:37;1.85;;;1.60;;
13795;SDS011;40911;51.552;9.874;2023-06-04T12:24:05;5.60;;;1.60;;
13795;SDS011;40911;51.552;9.874;2023-06-04T12:26:28;1.40;;;1.30;;
13795;SDS011;40911;51.552;9.874;2023-06-04T12:28:57;1.60;;;1.17;;
13795;SDS011;40911;51.552;9.874;2023-06-04T12:31:20;1.93;;;1.20;;
13795;SDS011;40911;51.552;9.874;2023-06-04T12:33:44;3.17;;;1.27;;
13795;SDS011;40911;51.552;9.874;2023-06-04T12:36:06;3.58;;;1.50;;
13795;SDS011;40911;51.552;9.874;2023-06-04T12:38:27;2.58;;;1.52;;
13795;SDS011;40911;51.552;9.874;2023-06-04T12:40:49;3.13;;;1.38;;
13795;SDS011;40911;51.552;9.874;2023-06-04T12:43:11;4.93;;;1.70;;
13795;SDS011;40911;51.552;9.874;2023-06-04T12:45:32;2.47;;;1.73;;
13795;SDS011;40911;51.552;9.874;2023-06-04T12:47:54;2.30;;;1.40;;
13795;SDS011;40911;51.552;9.874;2023-06-04T12:50:17;3.80;;;1.42;;
13795;SDS011;40911;51.552;9.874;2023-06-04T12:52:39;2.80;;;1.30;;
13795;SDS011;40911;51.552;9.874;2023-06-04T12:55:01;2.83;;;1.23;;
13795;SDS011;40911;51.552;9.874;2023-06-04T12:57:23;4.45;;;1.48;;
13795;SDS011;40911;51.552;9.874;2023-06-04T12:59:45;2.53;;;1.40;;
13795;SDS011;40911;51.552;9.874;2023-06-04T13:02:06;2.10;;;1.40;;
13795;SDS011;40911;51.552;9.874;2023-06-04T13:04:28;3.08;;;1.40;;
13795;SDS011;40911;51.552;9.874;2023-06-04T13:06:51;4.88;;;2.38;;
13795;SDS011;40911;51.552;9.874;2023-06-04T13:09:18;2.47;;;1.50;;
13795;SDS011;40911;51.552;9.874;2023-06-04T13:11:42;2.50;;;1.35;;
13795;SDS011;40911;51.552;9.874;2023-06-04T13:14:04;3.15;;;1.60;;
13795;SDS011;40911;51.552;9.874;2023-06-04T13:16:26;1.83;;;1.23;;
13795;SDS011;40911;51.552;9.874;2023-06-04T13:18:48;3.25;;;1.20;;
13795;SDS011;40911;51.552;9.874;2023-06-04T13:21:10;1.85;;;1.20;;
13795;SDS011;40911;51.552;9.874;2023-06-04T13:23:33;2.45;;;1.40;;
13795;SDS011;40911;51.552;9.874;2023-06-04T13:25:54;2.17;;;1.48;;
13795;SDS011;40911;51.552;9.874;2023-06-04T13:28:16;2.65;;;1.38;;
13795;SDS011;40911;51.552;9.874;2023-06-04T13:30:38;3.50;;;1.23;;
13795;SDS011;40911;51.552;9.874;2023-06-04T13:33:00;2.60;;;1.20;;
13795;SDS011;40911;51.552;9.874;2023-06-04T13:35:22;1.95;;;1.38;;
13795;SDS011;40911;51.552;9.874;2023-06-04T13:37:43;2.17;;;1.30;;
13795;SDS011;40911;51.552;9.874;2023-06-04T13:40:07;5.05;;;1.50;;
13795;SDS011;40911;51.552;9.874;2023-06-04T13:42:29;3.92;;;1.38;;
13795;SDS011;40911;51.552;9.874;2023-06-04T13:44:51;1.88;;;1.20;;
13795;SDS011;40911;51.552;9.874;2023-06-04T13:47:13;3.30;;;1.27;;
13795;SDS011;40911;51.552;9.874;2023-06-04T13:49:35;2.35;;;1.40;;
13795;SDS011;40911;51.552;9.874;2023-06-04T13:51:57;1.58;;;1.30;;
13795;SDS011;40911;51.552;9.874;2023-06-04T13:54:18;1.83;;;1.25;;
13795;SDS011;40911;51.552;9.874;2023-06-04T13:56:41;2.20;;;1.35;;
13795;SDS011;40911;51.552;9.874;2023-06-04T13:59:05;4.03;;;1.70;;
13795;SDS011;40911;51.552;9.874;2023-06-04T14:01:26;2.70;;;1.23;;
13795;SDS011;40911;51.552;9.874;2023-06-04T14:03:48;1.90;;;1.25;;
13795;SDS011;40911;51.552;9.874;2023-06-04T14:06:10;2.70;;;1.10;;
13795;SDS011;40911;51.552;9.874;2023-06-04T14:08:31;2.80;;;1.13;;
13795;SDS011;40911;51.552;9.874;2023-06-04T14:10:53;4.53;;;1.30;;
13795;SDS011;40911;51.552;9.874;2023-06-04T14:13:17;2.97;;;1.30;;
13795;SDS011;40911;51.552;9.874;2023-06-04T14:15:39;2.33;;;1.40;;
13795;SDS011;40911;51.552;9.874;2023-06-04T14:18:01;4.70;;;1.35;;
13795;SDS011;40911;51.552;9.874;2023-06-04T14:20:23;2.72;;;1.40;;
13795;SDS011;40911;51.552;9.874;2023-06-04T14:22:45;3.95;;;1.20;;
13795;SDS011;40911;51.552;9.874;2023-06-04T14:25:07;3.45;;;1.20;;
13795;SDS011;40911;51.552;9.874;2023-06-04T14:27:29;2.78;;;1.30;;
13795;SDS011;40911;51.552;9.874;2023-06-04T14:29:52;3.35;;;1.30;;
13795;SDS011;40911;51.552;9.874;2023-06-04T14:32:13;3.08;;;1.10;;
13795;SDS011;40911;51.552;9.874;2023-06-04T14:34:35;1.55;;;1.13;;
13795;SDS011;40911;51.552;9.874;2023-06-04T14:36:57;2.53;;;1.10;;
13795;SDS011;40911;51.552;9.874;2023-06-04T14:39:19;1.67;;;1.30;;
13795;SDS011;40911;51.552;9.874;2023-06-04T14:41:41;2.92;;;1.10;;
13795;SDS011;40911;51.552;9.874;2023-06-04T14:44:03;3.25;;;1.40;;
13795;SDS011;40911;51.552;9.874;2023-06-04T14:46:26;2.28;;;1.10;;
13795;SDS011;40911;51.552;9.874;2023-06-04T14:48:47;1.50;;;1.15;;
13795;SDS011;40911;51.552;9.874;2023-06-04T14:51:09;1.30;;;1.20;;
13795;SDS011;40911;51.552;9.874;2023-06-04T14:53:31;3.72;;;1.35;;
13795;SDS011;40911;51.552;9.874;2023-06-04T14:55:53;2.65;;;1.35;;
13795;SDS011;40911;51.552;9.874;2023-06-04T14:58:14;2.67;;;1.33;;
13795;SDS011;40911;51.552;9.874;2023-06-04T15:00:36;1.88;;;1.30;;
13795;SDS011;40911;51.552;9.874;2023-06-04T15:02:59;3.40;;;1.05;;
13795;SDS011;40911;51.552;9.874;2023-06-04T15:05:22;1.50;;;1.25;;
13795;SDS011;40911;51.552;9.874;2023-06-04T15:07:43;2.83;;;1.30;;
13795;SDS011;40911;51.552;9.874;2023-06-04T15:10:05;2.20;;;1.10;;
13795;SDS011;40911;51.552;9.874;2023-06-04T15:12:28;2.72;;;1.10;;
13795;SDS011;40911;51.552;9.874;2023-06-04T15:14:50;1.85;;;1.17;;
13795;SDS011;40911;51.552;9.874;2023-06-04T15:17:12;3.22;;;1.23;;
13795;SDS011;40911;51.552;9.874;2023-06-04T15:19:35;2.08;;;1.30;;
13795;SDS011;40911;51.552;9.874;2023-06-04T15:21:56;2.42;;;1.20;;
13795;SDS011;40911;51.552;9.874;2023-06-04T15:24:18;5.25;;;1.40;;
13795;SDS011;40911;51.552;9.874;2023-06-04T15:26:41;15.63;;;2.20;;
13795;SDS011;40911;51.552;9.874;2023-06-04T15:29:04;4.53;;;1.40;;
13795;SDS011;40911;51.552;9.874;2023-06-04T15:31:27;2.88;;;1.00;;
13795;SDS011;40911;51.552;9.874;2023-06-04T15:33:49;3.28;;;1.00;;
13795;SDS011;40911;51.552;9.874;2023-06-04T15:36:12;2.95;;;1.20;;
13795;SDS011;40911;51.552;9.874;2023-06-04T15:38:34;3.28;;;1.27;;
13795;SDS011;40911;51.552;9.874;2023-06-04T15:40:55;1.90;;;1.13;;
13795;SDS011;40911;51.552;9.874;2023-06-04T15:43:17;1.92;;;1.00;;
13795;SDS011;40911;51.552;9.874;2023-06-04T15:45:38;2.13;;;1.20;;
13795;SDS011;40911;51.552;9.874;2023-06-04T15:48:00;2.50;;;1.20;;
13795;SDS011;40911;51.552;9.874;2023-06-04T15:50:22;1.85;;;0.90;;
13795;SDS011;40911;51.552;9.874;2023-06-04T15:52:45;3.72;;;1.30;;
13795;SDS011;40911;51.552;9.874;2023-06-04T15:55:07;2.65;;;1.35;;
13795;SDS011;40911;51.552;9.874;2023-06-04T15:57:28;1.83;;;1.30;;
13795;SDS011;40911;51.552;9.874;2023-06-04T15:59:50;2.75;;;0.98;;
13795;SDS011;40911;51.552;9.874;2023-06-04T16:02:12;1.27;;;1.00;;